createdAt,value
2022-12-03T17:13:47.865Z,45.33
2022-12-03T17:16:16.331Z,51.05
2022-12-03T17:18:44.487Z,55.08
2022-12-03T17:21:12.546Z,59.85
2022-12-03T17:23:40.711Z,55.90
2022-12-03T17:26:08.905Z,53.15
2022-12-03T17:28:37.146Z,50.15
2022-12-03T17:31:05.537Z,43.42
2022-12-03T17:33:33.706Z,40.63
2022-12-03T17:36:02.345Z,41.00
2022-12-03T17:38:35.514Z,34.30
2022-12-03T17:41:08.278Z,33.30
2022-12-03T17:43:36.819Z,32.85
2022-12-03T17:46:06.926Z,32.33
2022-12-03T17:48:35.973Z,32.53
2022-12-03T17:51:04.525Z,32.92
2022-12-03T17:53:32.771Z,36.10
2022-12-03T17:56:01.373Z,35.05
2022-12-03T17:58:29.970Z,31.25
2022-12-03T18:01:02.513Z,31.13
2022-12-03T18:03:31.749Z,34.42
2022-12-03T18:06:00.196Z,31.25
2022-12-03T18:08:28.954Z,30.13
2022-12-03T18:10:57.183Z,30.30
2022-12-03T18:13:25.486Z,30.50
2022-12-03T18:15:53.898Z,33.03
2022-12-03T18:18:22.406Z,29.80
2022-12-03T18:20:51.461Z,27.85
2022-12-03T18:23:20.191Z,30.75
2022-12-03T18:25:48.510Z,31.75
2022-12-03T18:28:21.079Z,29.85
2022-12-03T18:31:00.725Z,30.27
2022-12-03T18:33:31.271Z,29.80
2022-12-03T18:36:13.545Z,31.40
2022-12-03T18:38:50.670Z,29.10
2022-12-03T18:41:21.511Z,30.88
2022-12-03T18:43:50.593Z,30.27
2022-12-03T18:49:09.820Z,31.08
2022-12-03T18:51:38.701Z,33.55
2022-12-03T18:54:13.299Z,33.10
2022-12-03T18:56:41.849Z,28.42
2022-12-03T18:59:10.450Z,31.55
2022-12-03T19:01:38.781Z,31.55
2022-12-03T19:04:07.130Z,36.30
2022-12-03T19:06:35.331Z,33.88
2022-12-03T19:09:04.009Z,31.40
2022-12-03T19:11:34.769Z,35.88
2022-12-03T19:14:06.210Z,32.75
2022-12-03T19:16:36.017Z,33.90
2022-12-03T19:19:05.874Z,35.47
2022-12-03T19:21:34.315Z,32.72
2022-12-03T19:26:55.032Z,30.50
2022-12-03T19:29:24.045Z,30.75
2022-12-03T19:31:53.061Z,34.58
2022-12-03T19:34:21.794Z,32.20
2022-12-03T19:36:50.395Z,30.88
2022-12-03T19:39:19.119Z,31.75
2022-12-03T19:41:47.395Z,30.13
2022-12-03T19:44:17.914Z,32.85
2022-12-03T19:46:46.162Z,32.35
2022-12-03T19:49:17.476Z,30.23
2022-12-03T19:51:45.517Z,31.20
2022-12-03T19:54:14.844Z,32.47
2022-12-03T19:56:43.835Z,31.50
2022-12-03T19:59:13.916Z,28.65
2022-12-03T20:01:43.954Z,32.75
2022-12-03T20:04:13.273Z,29.50
2022-12-03T20:06:42.113Z,28.77
2022-12-03T20:09:14.315Z,29.15
2022-12-03T20:11:43.037Z,28.55
2022-12-03T20:14:15.161Z,30.73
2022-12-03T20:16:45.057Z,28.88
2022-12-03T20:19:15.635Z,31.23
2022-12-03T20:21:44.594Z,31.27
2022-12-03T20:24:19.074Z,29.23
2022-12-03T20:26:47.035Z,29.88
2022-12-03T20:29:15.115Z,31.33
2022-12-03T20:31:43.712Z,30.60
2022-12-03T20:34:11.905Z,28.33
2022-12-03T20:36:40.756Z,28.67
2022-12-03T20:39:09.344Z,31.23
2022-12-03T20:41:38.202Z,30.25
2022-12-03T20:44:08.245Z,31.23
2022-12-03T20:46:36.728Z,31.70
2022-12-03T20:49:05.395Z,30.30
2022-12-03T20:51:34.075Z,27.52
2022-12-03T20:54:03.479Z,31.40
2022-12-03T20:56:35.519Z,32.33
2022-12-03T20:59:07.233Z,29.15
2022-12-03T21:01:36.652Z,29.70
2022-12-03T21:04:06.320Z,29.00
2022-12-03T21:06:38.365Z,29.45
2022-12-03T21:09:07.847Z,37.10
2022-12-03T21:11:36.644Z,33.38
2022-12-03T21:14:05.328Z,31.50
2022-12-03T21:19:25.605Z,31.13
2022-12-03T21:21:53.698Z,29.63
2022-12-03T21:24:22.207Z,30.13
2022-12-03T21:26:50.565Z,32.35
2022-12-03T21:29:18.815Z,31.17
2022-12-03T21:31:47.451Z,31.92
2022-12-03T21:34:16.295Z,31.73
2022-12-03T21:36:44.489Z,31.63
2022-12-03T21:39:12.611Z,33.92
2022-12-03T21:41:41.175Z,28.98
2022-12-03T21:44:29.321Z,29.75
2022-12-03T21:47:11.219Z,29.45
2022-12-03T21:49:42.281Z,31.17
2022-12-03T21:52:10.871Z,31.88
2022-12-03T21:54:39.260Z,29.80
2022-12-03T21:57:07.786Z,30.75
2022-12-03T21:59:36.508Z,32.95
2022-12-03T22:02:05.366Z,30.48
2022-12-03T22:04:34.061Z,29.30
2022-12-03T22:07:03.394Z,30.80
2022-12-03T22:09:33.000Z,29.40
2022-12-03T22:12:01.834Z,28.67
2022-12-03T22:14:31.235Z,29.98
2022-12-03T22:16:59.279Z,30.08
2022-12-03T22:19:28.449Z,30.92
2022-12-03T22:21:57.089Z,28.40
2022-12-03T22:24:25.489Z,28.95
2022-12-03T22:26:55.486Z,29.88
2022-12-03T22:29:24.164Z,29.25
2022-12-03T22:31:52.736Z,30.17
2022-12-03T22:34:21.250Z,28.50
2022-12-03T22:36:49.650Z,29.02
2022-12-03T22:39:18.184Z,30.90
2022-12-03T22:41:46.612Z,27.10
2022-12-03T22:44:14.731Z,31.55
2022-12-03T22:46:42.961Z,27.27
2022-12-03T22:49:13.704Z,27.70
2022-12-03T22:51:44.659Z,26.40
2022-12-03T22:54:14.092Z,25.08
2022-12-03T22:56:42.610Z,22.60
2022-12-03T22:59:10.758Z,25.42
2022-12-03T23:01:40.489Z,23.23
2022-12-03T23:04:09.430Z,24.20
2022-12-03T23:06:37.900Z,23.50
2022-12-03T23:09:07.470Z,27.20
2022-12-03T23:11:37.033Z,20.45
2022-12-03T23:14:05.626Z,22.40
2022-12-03T23:16:34.542Z,21.85
2022-12-03T23:19:03.809Z,20.60
2022-12-03T23:21:34.531Z,20.73
2022-12-03T23:24:05.650Z,20.73
2022-12-03T23:26:38.889Z,20.73
2022-12-03T23:29:08.827Z,22.27
2022-12-03T23:31:37.485Z,22.90
2022-12-03T23:34:05.896Z,20.27
2022-12-03T23:36:34.791Z,22.38
2022-12-03T23:39:03.130Z,19.35
2022-12-03T23:41:31.546Z,21.25
2022-12-03T23:44:00.008Z,23.05
2022-12-03T23:46:28.767Z,22.30
2022-12-03T23:48:59.299Z,20.20
2022-12-03T23:51:28.044Z,22.10
2022-12-03T23:53:56.800Z,22.55
2022-12-03T23:56:29.448Z,21.70
2022-12-03T23:58:58.768Z,24.67
